Williston, ND

8:55 AM CDT on April 20, 2018 (GMT -0500)
Sloulin International | | Change Station
Active Advisory: Flood Warning

Elev 1982 ft 48.18 °N, 103.64 °W | Updated 3 minutes ago

Clear
Clear
39 °F
Feels Like 35 °F
N
6
Wind Variable Wind from ENE

Today
High -- | Low -- °F
--% Chance of Precip.
Yesterday
High -- | Low -- °F
Precip. -- in
Pressure 30.29 in
Visibility 10.0 miles
Clouds Clear
Windchill 35 °F
Dew Point 31 °F
Humidity 73%
Rainfall 0.00 in
Snow Depth Not available.
6:55 AM 8:52 PM
Waxing Crescent, 24% visible
METAR KISN 201352Z AUTO 06005KT 10SM CLR 04/M01 A3023 RMK AO2 SLP255 T00391006
Pressure 30.29 in
Visibility 10.0 miles
Clouds Clear
Windchill 35 °F
Dew Point 31 °F
Humidity 73%
Rainfall 0.00 in
Snow Depth Not available.
6:55 AM 8:52 PM
Waxing Crescent, 24% visible
METAR KISN 201352Z AUTO 06005KT 10SM CLR 04/M01 A3023 RMK AO2 SLP255 T00391006

Get Your Daily Forecast Email!

Thanks for signing up!

Be on the lookout for a verification email in your inbox.

You'll start receiving severe weather alerts in your inbox..

×

10-Day Weather Forecast

Almanac

Astronomy

Apr. 20, 2018 Rise Set
Actual Time
Civil Twilight
Nautical Twilight
Astronomical Twilight
Moon
Length of Visible Light
Length of Day
Tomorrow will be .
, % of the Moon is Illuminated

Today's Extremes

State Highs State Lows

Community

WunderPhotos

Category 6

Welcome to Category 6. This is the collective home for Weather Underground's featured writeups by Dr. Jeff Masters (right), Bob Henson (left), Chris Burt, and other regular contributors.

Nearby

Air Quality

  Air Quality AQ Index Pollutant
Not available.

Snow Depth

Station Depth Elevation

Earthquake Activity

City Distance Mag. Time & Date
Minimum magnitude displayed is 2.5.

Coastal Water Temperatures

Place Temperature

Stations

Nearby Weather Stations

Station Location Temp. Windchill Dew Point Humidity Wind Precip. Elev Updated Type
                   

Watches & Warnings

Flood Warning
Issued: 8:28 AM CDT Apr. 20, 2018 – National Weather Service

The National Weather Service in Bismarck has issued a

* Flood Warning for
the little Muddy river near Williston
* from this morning until late this afternoon
* at 07am Friday the stage was... 9.7 feet
* minor flooding is forecast
* flood stage is 10.0 feet
* forecast to rise above flood stage this morning and continue to
rise to near 10.6 feet by this afternoon. The river is expected
to fall below flood stage by late this afternoon.
* Impact... at 12.0 feet... co-8 by gage Road has water on it. Co-7b
also floods at this level. The little Muddy Recreation Area near
Williston floods.



             Fld observed forecasts (7am)
location stg stg day/time Sat sun Mon Tue Wed

Missouri River basin
Williston 10 9.7 Fri 7 am 7.8 7.7 7.4 7.2 7.0


Lat... Lon 4830 10369 4832 10356 4810 10358
      4811 10361 4827 10362



Jv